createdAt,value
2023-05-12T00:02:25.647Z,4.47
2023-05-12T00:05:32.250Z,3.33
2023-05-12T00:08:36.332Z,3.55
2023-05-12T00:11:40.494Z,3.83
2023-05-12T00:14:46.550Z,3.70
2023-05-12T00:17:51.682Z,3.50
2023-05-12T00:24:05.062Z,3.92
2023-05-12T00:27:11.855Z,4.00
2023-05-12T00:30:15.977Z,3.85
2023-05-12T00:33:20.580Z,3.85
2023-05-12T00:36:24.870Z,3.33
2023-05-12T00:39:28.858Z,3.70
2023-05-12T00:42:35.128Z,3.75
2023-05-12T00:45:54.801Z,3.60
2023-05-12T00:49:01.206Z,3.20
2023-05-12T00:52:05.699Z,3.70
2023-05-12T00:55:10.660Z,3.95
2023-05-12T01:01:30.081Z,3.83
2023-05-12T01:04:36.812Z,4.05
2023-05-12T01:07:46.753Z,3.30
2023-05-12T01:10:50.887Z,3.13
2023-05-12T01:13:57.747Z,3.50
2023-05-12T01:17:06.432Z,3.20
2023-05-12T01:20:22.280Z,3.10
2023-05-12T01:23:40.799Z,4.30
2023-05-12T01:27:11.643Z,3.20
2023-05-12T01:30:19.750Z,3.65
2023-05-12T01:33:24.361Z,4.25
2023-05-12T01:36:28.816Z,3.50
2023-05-12T01:39:38.237Z,3.25
2023-05-12T01:42:46.964Z,3.63
2023-05-12T01:45:52.021Z,3.58
2023-05-12T01:49:19.614Z,3.33
2023-05-12T01:52:26.166Z,3.42
2023-05-12T01:55:36.288Z,3.22
2023-05-12T01:58:45.041Z,3.13
2023-05-12T02:01:49.289Z,4.25
2023-05-12T02:05:01.012Z,3.40
2023-05-12T02:08:08.208Z,3.08
2023-05-12T02:11:12.778Z,3.42
2023-05-12T02:14:17.048Z,3.50
2023-05-12T02:17:21.869Z,3.47
2023-05-12T02:20:27.063Z,3.58
2023-05-12T02:23:33.612Z,3.90
2023-05-12T02:26:37.958Z,3.40
2023-05-12T02:29:45.695Z,5.20
2023-05-12T02:32:50.095Z,3.45
2023-05-12T02:36:02.992Z,3.65
2023-05-12T02:39:07.343Z,3.20
2023-05-12T02:42:12.031Z,3.20
2023-05-12T02:45:16.589Z,5.22
2023-05-12T02:48:24.581Z,3.67
2023-05-12T02:51:47.089Z,3.67
2023-05-12T02:54:53.859Z,3.60
2023-05-12T02:58:00.209Z,3.95
2023-05-12T03:01:11.482Z,4.68
2023-05-12T03:04:24.451Z,3.83
2023-05-12T03:07:35.909Z,3.53
2023-05-12T03:10:46.331Z,3.75
2023-05-12T03:14:33.152Z,4.22
2023-05-12T03:17:45.675Z,4.50
2023-05-12T03:20:49.894Z,3.47
2023-05-12T03:23:54.080Z,3.60
2023-05-12T03:26:59.781Z,4.95
2023-05-12T03:30:09.436Z,3.88
2023-05-12T03:33:13.997Z,4.28
2023-05-12T03:36:22.164Z,3.50
2023-05-12T03:39:40.177Z,3.45
2023-05-12T03:42:46.990Z,4.75
2023-05-12T03:45:55.801Z,3.90
2023-05-12T03:49:28.131Z,3.47
2023-05-12T03:52:30.121Z,3.38
2023-05-12T03:55:43.399Z,3.60
2023-05-12T03:58:51.558Z,3.15
2023-05-12T04:02:02.846Z,5.50
2023-05-12T04:05:09.086Z,4.75
2023-05-12T04:08:13.308Z,7.10
2023-05-12T04:11:22.716Z,3.70
2023-05-12T04:14:35.264Z,4.43
2023-05-12T04:17:43.861Z,4.45
2023-05-12T04:20:57.589Z,3.83
2023-05-12T04:24:02.194Z,3.70
2023-05-12T04:27:12.294Z,4.30
2023-05-12T04:30:17.693Z,3.97
2023-05-12T04:33:22.433Z,4.07
2023-05-12T04:36:29.116Z,5.47
2023-05-12T04:39:33.571Z,5.60
2023-05-12T04:42:37.827Z,4.65
2023-05-12T04:45:47.353Z,4.00
2023-05-12T04:48:52.156Z,4.05
2023-05-12T04:52:06.165Z,6.00
2023-05-12T04:55:11.498Z,4.90
2023-05-12T04:58:18.764Z,5.78
2023-05-12T05:01:30.925Z,4.38
2023-05-12T05:04:36.006Z,3.97
2023-05-12T05:07:51.415Z,4.30
2023-05-12T05:11:04.268Z,4.90
2023-05-12T05:14:09.126Z,4.82
2023-05-12T05:17:16.000Z,9.43
2023-05-12T05:20:28.960Z,4.77
2023-05-12T05:23:38.276Z,6.55
2023-05-12T05:26:49.182Z,4.20
2023-05-12T05:29:53.485Z,6.97
2023-05-12T05:32:57.591Z,4.60
2023-05-12T05:36:05.270Z,4.22
2023-05-12T05:39:12.998Z,4.18
2023-05-12T05:42:29.246Z,4.53
2023-05-12T05:45:53.206Z,4.95
2023-05-12T05:48:58.458Z,5.03
2023-05-12T05:52:05.624Z,7.03
2023-05-12T05:55:09.765Z,5.07
2023-05-12T05:58:17.234Z,5.53
2023-05-12T06:01:37.105Z,4.25
2023-05-12T06:04:43.696Z,5.00
2023-05-12T06:07:47.692Z,4.70
2023-05-12T06:10:55.784Z,4.07
2023-05-12T06:13:59.782Z,3.70
2023-05-12T06:17:04.252Z,5.45
2023-05-12T06:20:09.315Z,3.90
2023-05-12T06:23:13.907Z,4.20
2023-05-12T06:26:18.212Z,4.07
2023-05-12T06:29:22.243Z,4.30
2023-05-12T06:32:26.229Z,4.32
2023-05-12T06:35:30.324Z,4.57
2023-05-12T06:38:36.987Z,3.65
2023-05-12T06:41:44.375Z,3.70
2023-05-12T06:44:58.677Z,3.75
2023-05-12T06:48:06.556Z,3.42
2023-05-12T06:51:17.710Z,4.22
2023-05-12T06:54:24.168Z,3.67
2023-05-12T06:57:28.576Z,4.10
2023-05-12T07:00:46.713Z,3.50
2023-05-12T07:03:50.714Z,3.43
2023-05-12T07:07:00.171Z,3.45
2023-05-12T07:10:23.120Z,3.60
2023-05-12T07:13:29.609Z,3.60
2023-05-12T07:16:37.856Z,3.20
2023-05-12T07:19:42.098Z,3.53
2023-05-12T07:22:48.597Z,4.00
2023-05-12T07:26:10.300Z,3.63
2023-05-12T07:29:14.730Z,3.75
2023-05-12T07:32:19.034Z,3.95
2023-05-12T07:35:25.693Z,5.35
2023-05-12T07:38:40.653Z,3.47
2023-05-12T07:41:47.859Z,3.67
2023-05-12T07:44:52.009Z,3.50
2023-05-12T07:48:01.874Z,5.05
2023-05-12T07:51:07.770Z,3.60
2023-05-12T07:54:17.004Z,4.25
2023-05-12T07:57:21.683Z,3.58
2023-05-12T08:00:39.674Z,3.78
2023-05-12T08:03:43.886Z,5.00
2023-05-12T08:06:49.064Z,3.60
2023-05-12T08:09:53.551Z,4.18
2023-05-12T08:12:58.759Z,4.38
2023-05-12T08:19:06.683Z,4.03
2023-05-12T08:22:10.903Z,3.72
2023-05-12T08:25:17.660Z,4.25
2023-05-12T08:28:29.742Z,4.05
2023-05-12T08:31:34.000Z,3.83
2023-05-12T08:34:39.863Z,4.43
2023-05-12T08:37:48.082Z,4.65
2023-05-12T08:41:07.186Z,6.28
2023-05-12T08:44:15.197Z,4.20
2023-05-12T08:47:26.810Z,4.32
2023-05-12T08:50:39.201Z,4.50
2023-05-12T08:53:51.859Z,3.90
2023-05-12T08:57:09.973Z,5.07
2023-05-12T09:00:20.460Z,3.90
2023-05-12T09:03:32.298Z,3.83
2023-05-12T09:06:39.843Z,3.42
2023-05-12T09:09:49.602Z,3.80
2023-05-12T09:13:06.675Z,4.07
2023-05-12T09:16:16.789Z,4.50
2023-05-12T09:19:25.516Z,5.30
2023-05-12T09:22:35.697Z,6.57
2023-05-12T09:25:41.988Z,5.28
2023-05-12T09:28:47.060Z,5.15
2023-05-12T09:32:04.756Z,5.63
2023-05-12T09:35:21.454Z,7.78
2023-05-12T09:38:30.539Z,5.78
2023-05-12T09:41:44.071Z,5.45
2023-05-12T09:44:52.623Z,5.35
2023-05-12T09:47:57.670Z,6.93
2023-05-12T09:51:05.658Z,5.18
2023-05-12T09:54:12.040Z,13.93
2023-05-12T09:57:17.881Z,12.55
2023-05-12T10:03:56.405Z,12.45
2023-05-12T10:07:11.577Z,21.25
2023-05-12T10:10:27.141Z,9.63
2023-05-12T10:13:40.574Z,9.25
2023-05-12T10:20:30.079Z,11.95
2023-05-12T10:23:37.801Z,10.70
2023-05-12T10:26:44.265Z,10.52
2023-05-12T10:29:49.321Z,10.38
2023-05-12T10:33:00.230Z,11.50
2023-05-12T10:36:07.112Z,16.35
2023-05-12T10:39:16.541Z,15.82
2023-05-12T10:42:26.606Z,12.10
2023-05-12T10:45:37.590Z,13.82
2023-05-12T10:48:54.715Z,13.68
2023-05-12T10:52:02.394Z,62.13
2023-05-12T10:55:12.695Z,49.72
2023-05-12T10:58:18.433Z,27.75
2023-05-12T11:01:26.594Z,30.00
2023-05-12T11:04:59.245Z,32.70
2023-05-12T11:08:18.115Z,28.35
2023-05-12T11:11:24.559Z,33.27
2023-05-12T11:14:29.841Z,32.17
2023-05-12T11:17:34.071Z,28.15
2023-05-12T11:20:38.724Z,26.98
2023-05-12T11:23:44.356Z,31.52
2023-05-12T11:26:53.888Z,31.17
2023-05-12T11:30:00.185Z,29.95
2023-05-12T11:33:36.881Z,27.60
2023-05-12T11:36:38.176Z,27.00
2023-05-12T11:39:43.049Z,28.02
2023-05-12T11:42:53.284Z,33.67
2023-05-12T11:45:57.789Z,33.40
2023-05-12T11:49:01.821Z,25.58
2023-05-12T11:52:06.590Z,18.67
2023-05-12T11:55:16.216Z,26.00
2023-05-12T11:58:29.963Z,23.00
2023-05-12T12:01:44.655Z,30.10
2023-05-12T12:04:49.294Z,28.63
2023-05-12T12:07:53.899Z,26.53
2023-05-12T12:10:58.164Z,18.08
2023-05-12T12:14:03.698Z,21.67
2023-05-12T12:17:08.081Z,23.20
2023-05-12T12:20:12.821Z,50.40
2023-05-12T12:23:17.384Z,37.07
2023-05-12T12:26:22.631Z,55.35
2023-05-12T12:29:30.833Z,59.60
2023-05-12T12:32:34.825Z,82.57
2023-05-12T12:35:39.135Z,42.55
2023-05-12T12:38:43.503Z,35.83
2023-05-12T12:41:49.174Z,56.20
2023-05-12T12:44:53.854Z,47.45
2023-05-12T12:48:00.861Z,51.47
2023-05-12T12:51:05.386Z,48.15
2023-05-12T12:54:12.100Z,45.25
2023-05-12T12:57:16.140Z,38.88
2023-05-12T13:00:24.328Z,25.63
2023-05-12T13:03:28.813Z,21.27
2023-05-12T13:06:32.762Z,26.35
2023-05-12T13:09:36.977Z,24.95
2023-05-12T13:12:40.973Z,19.98
2023-05-12T13:15:45.055Z,13.25
2023-05-12T13:18:49.143Z,13.82
2023-05-12T13:21:56.391Z,10.90
2023-05-12T13:25:01.208Z,13.50
2023-05-12T13:28:09.291Z,15.70
2023-05-12T13:34:17.167Z,12.70
2023-05-12T13:37:21.269Z,12.48
2023-05-12T13:40:25.430Z,17.58
2023-05-12T13:43:29.605Z,14.15
2023-05-12T13:46:33.882Z,14.18
2023-05-12T13:49:37.965Z,13.70
2023-05-12T13:52:42.585Z,10.23
2023-05-12T13:55:46.832Z,9.07
2023-05-12T13:58:50.897Z,10.23
2023-05-12T14:01:55.830Z,12.18
2023-05-12T14:04:59.750Z,13.68
2023-05-12T14:08:07.069Z,13.57
2023-05-12T14:11:12.262Z,13.88
2023-05-12T14:14:16.474Z,15.73
2023-05-12T14:17:20.785Z,13.13
2023-05-12T14:20:24.650Z,13.65
2023-05-12T14:23:28.814Z,12.70
2023-05-12T14:26:33.562Z,11.15
2023-05-12T14:29:37.535Z,11.50
2023-05-12T14:32:44.619Z,13.15
2023-05-12T14:36:03.027Z,13.30
2023-05-12T14:39:11.417Z,12.73
2023-05-12T14:42:15.811Z,12.07
2023-05-12T14:45:20.326Z,16.52
2023-05-12T14:48:26.975Z,14.43
2023-05-12T14:51:31.446Z,13.77
2023-05-12T14:54:37.657Z,13.95
2023-05-12T14:57:45.638Z,14.23
2023-05-12T15:00:52.327Z,14.30
2023-05-12T15:03:56.898Z,11.88
2023-05-12T15:07:01.122Z,12.60
2023-05-12T15:10:06.781Z,9.52
2023-05-12T15:13:11.022Z,9.23
2023-05-12T15:16:14.932Z,9.60
2023-05-12T15:19:19.144Z,8.00
2023-05-12T15:22:23.365Z,6.25
2023-05-12T15:25:27.577Z,6.68
2023-05-12T15:28:32.202Z,6.50
2023-05-12T15:31:38.670Z,6.20
2023-05-12T15:34:48.521Z,6.72
2023-05-12T15:37:56.487Z,6.65
2023-05-12T15:41:00.719Z,6.60
2023-05-12T15:44:04.849Z,6.28
2023-05-12T15:47:08.710Z,5.90
2023-05-12T15:50:12.700Z,6.03
2023-05-12T15:53:16.770Z,5.82
2023-05-12T15:56:23.693Z,5.78
2023-05-12T15:59:29.360Z,6.78
2023-05-12T16:05:42.130Z,7.60
2023-05-12T16:08:46.416Z,8.30
2023-05-12T16:11:54.436Z,6.90
2023-05-12T16:14:58.493Z,6.60
2023-05-12T16:18:02.816Z,6.63
2023-05-12T16:21:07.288Z,8.23
2023-05-12T16:24:12.609Z,8.60
2023-05-12T16:27:16.773Z,8.00
2023-05-12T16:30:20.750Z,10.02
2023-05-12T16:33:24.684Z,8.52
2023-05-12T16:36:55.114Z,8.57
2023-05-12T16:40:02.963Z,7.57
2023-05-12T16:43:07.786Z,6.57
2023-05-12T16:46:11.879Z,5.85
2023-05-12T16:49:17.426Z,5.70
2023-05-12T16:52:21.754Z,6.97
2023-05-12T16:55:25.861Z,5.97
2023-05-12T16:58:33.334Z,8.32
2023-05-12T17:01:37.560Z,7.35
2023-05-12T17:04:42.431Z,6.88
2023-05-12T17:07:46.782Z,6.87
2023-05-12T17:10:52.076Z,5.88
2023-05-12T17:13:56.492Z,5.72
2023-05-12T17:17:00.604Z,4.72
2023-05-12T17:20:05.182Z,4.97
2023-05-12T17:23:10.078Z,4.82
2023-05-12T17:26:14.793Z,4.78
2023-05-12T17:29:21.811Z,5.43
2023-05-12T17:32:25.692Z,4.60
2023-05-12T17:35:29.728Z,4.75
2023-05-12T17:38:33.790Z,5.70
2023-05-12T17:41:38.106Z,5.28
2023-05-12T17:44:42.596Z,5.70
2023-05-12T17:47:50.012Z,4.90
2023-05-12T17:50:54.512Z,5.63
2023-05-12T17:53:58.564Z,5.55
2023-05-12T17:57:04.122Z,6.15
2023-05-12T18:03:32.007Z,7.30
2023-05-12T18:06:41.660Z,6.40
2023-05-12T18:09:45.799Z,7.03
2023-05-12T18:12:53.646Z,6.68
2023-05-12T18:15:57.676Z,5.60
2023-05-12T18:19:01.914Z,6.07
2023-05-12T18:22:06.703Z,6.30
2023-05-12T18:25:13.623Z,6.05
2023-05-12T18:28:18.287Z,5.60
2023-05-12T18:31:22.815Z,5.37
2023-05-12T18:34:31.017Z,5.72
2023-05-12T18:37:35.437Z,5.75
2023-05-12T18:40:40.278Z,5.43
2023-05-12T18:43:45.669Z,5.83
2023-05-12T18:46:52.131Z,6.03
2023-05-12T18:49:56.073Z,6.55
2023-05-12T18:53:00.040Z,6.60
2023-05-12T18:56:04.188Z,6.13
2023-05-12T18:59:08.253Z,6.82
2023-05-12T19:02:12.249Z,6.40
2023-05-12T19:05:16.773Z,6.40
2023-05-12T19:08:21.181Z,5.72
2023-05-12T19:11:25.200Z,5.75
2023-05-12T19:14:29.527Z,6.05
2023-05-12T19:17:33.434Z,6.15
2023-05-12T19:20:38.579Z,5.85
2023-05-12T19:23:42.583Z,8.93
2023-05-12T19:26:46.618Z,5.85
2023-05-12T19:29:50.596Z,5.95
2023-05-12T19:32:54.679Z,6.50
2023-05-12T19:35:58.830Z,5.55
2023-05-12T19:39:03.404Z,6.60
2023-05-12T19:42:10.498Z,5.25
2023-05-12T19:45:21.750Z,5.75
2023-05-12T19:48:26.079Z,5.82
2023-05-12T19:51:30.570Z,5.55
2023-05-12T19:54:34.377Z,6.03
2023-05-12T19:57:40.105Z,5.72
2023-05-12T20:00:49.817Z,5.57
2023-05-12T20:03:54.744Z,5.15
2023-05-12T20:06:59.314Z,5.82
2023-05-12T20:10:03.894Z,5.60
2023-05-12T20:13:13.491Z,5.88
2023-05-12T20:16:19.291Z,5.72
2023-05-12T20:19:23.902Z,7.90
2023-05-12T20:22:28.090Z,11.95
2023-05-12T20:25:34.012Z,6.43
2023-05-12T20:28:38.309Z,5.65
2023-05-12T20:31:44.665Z,5.90
2023-05-12T20:34:52.719Z,5.30
2023-05-12T20:38:01.875Z,4.85
2023-05-12T20:41:09.602Z,5.53
2023-05-12T20:44:13.661Z,5.30
2023-05-12T20:47:17.720Z,5.43
2023-05-12T20:50:23.452Z,5.93
2023-05-12T20:53:40.614Z,5.63
2023-05-12T20:56:46.977Z,6.25
2023-05-12T20:59:53.483Z,5.65
2023-05-12T21:03:00.503Z,5.15
2023-05-12T21:06:06.479Z,4.63
2023-05-12T21:09:10.695Z,5.18
2023-05-12T21:12:17.788Z,5.10
2023-05-12T21:15:21.637Z,5.25
2023-05-12T21:18:25.750Z,5.30
2023-05-12T21:21:29.745Z,5.10
2023-05-12T21:24:34.654Z,4.97
2023-05-12T21:27:44.588Z,5.20
2023-05-12T21:30:48.772Z,5.53
2023-05-12T21:33:52.804Z,5.13
2023-05-12T21:36:58.970Z,5.25
2023-05-12T21:40:04.644Z,4.63
2023-05-12T21:43:10.070Z,5.47
2023-05-12T21:46:19.319Z,5.47
2023-05-12T21:49:28.050Z,5.18
2023-05-12T21:52:36.383Z,5.07
2023-05-12T21:58:46.354Z,5.95
2023-05-12T22:01:50.216Z,6.10
2023-05-12T22:04:54.248Z,5.60
2023-05-12T22:08:00.651Z,5.57
2023-05-12T22:11:07.492Z,5.47
2023-05-12T22:14:14.221Z,5.43
2023-05-12T22:17:18.353Z,6.18
2023-05-12T22:20:23.735Z,5.38
2023-05-12T22:26:37.711Z,5.35
2023-05-12T22:29:41.735Z,5.50
2023-05-12T22:32:46.493Z,5.65
2023-05-12T22:36:00.170Z,4.90
2023-05-12T22:39:05.956Z,6.03
2023-05-12T22:42:09.924Z,4.80
2023-05-12T22:45:13.863Z,5.18
2023-05-12T22:48:17.877Z,5.68
2023-05-12T22:51:25.371Z,5.68
2023-05-12T22:54:30.017Z,6.20
2023-05-12T22:57:37.306Z,6.47
2023-05-12T23:00:47.029Z,6.38
2023-05-12T23:03:59.136Z,5.53
2023-05-12T23:07:03.229Z,6.15
2023-05-12T23:10:10.369Z,6.60
2023-05-12T23:13:16.756Z,5.03
2023-05-12T23:16:26.388Z,5.28
2023-05-12T23:19:55.527Z,5.07
2023-05-12T23:23:13.176Z,5.70
2023-05-12T23:26:20.972Z,4.90
2023-05-12T23:29:25.088Z,5.75
2023-05-12T23:32:29.097Z,5.93
2023-05-12T23:35:33.248Z,5.10
2023-05-12T23:38:37.218Z,6.22
2023-05-12T23:41:41.225Z,5.55
2023-05-12T23:44:45.185Z,4.88
2023-05-12T23:47:51.042Z,4.80
2023-05-12T23:50:57.572Z,5.03
2023-05-12T23:54:01.564Z,5.60
2023-05-12T23:57:25.321Z,5.80
